Latest Coastal Weather Observations for South Channel Island

IDV60701

Issued at 10:32 am EST Thursday 23 September 2021 (issued every 10 minutes, with the page automatically refreshed every 10 minutes)

About coastal observations | Map of coastal stations | Coastal observations for VIC | Marine services | Other Formats
Station Details ID: 086344 Name: SOUTH CHANNEL ISLAND Lat: -38.31 Lon: 144.80 Height: 9.0 m
Data from the previous 72 hours. | See also: Recent months at South Channel Island
Date/Time
EST
Wind Sea
Height
m
Swell Vis
km
Cloud Weather Temp
°C
Press
MSL
hPa
Rain since
9am
mm
Dir  Spd
kts
Gust
kts
Height
m
Period
s
Dir
23/10:30am WNW 21 28 - - - - - - - - - -
23/10:00am WNW 22 28 - - - - - - - - - -
23/09:30am WNW 20 24 - - - - - - - - - -
23/09:00am WNW 21 27 - - - - - - - - - -
23/08:30am WNW 24 28 - - - - - - - - - -
23/08:00am WNW 23 27 - - - - - - - - - -
23/07:30am WNW 22 26 - - - - - - - - - -
23/07:00am WNW 16 20 - - - - - - - - - -
23/06:30am WNW 18 23 - - - - - - - - - -
23/06:00am WNW 18 20 - - - - - - - - - -
23/05:30am NW 15 18 - - - - - - - - - -
23/05:00am NW 15 17 - - - - - - - - - -
23/04:30am NW 12 14 - - - - - - - - - -
23/04:00am WNW 13 15 - - - - - - - - - -
23/03:30am NW 15 17 - - - - - - - - - -
23/03:00am NW 17 19 - - - - - - - - - -
23/02:30am NW 16 18 - - - - - - - - - -
23/02:00am NW 17 18 - - - - - - - - - -
23/01:30am NW 15 17 - - - - - - - - - -
23/01:00am NW 17 20 - - - - - - - - - -
23/12:30am NW 15 16 - - - - - - - - - -
23/12:00am NW 15 17 - - - - - - - - - -
 
Date/Time
EST
Wind Sea
Height
m
Swell Vis
km
Cloud Weather Temp
°C
Press
MSL
hPa
Rain since
9am
mm
Dir  Spd
kts
Gust
kts
Height
m
Period
s
Dir
22/11:30pm NW 15 17 - - - - - - - - - -
22/11:00pm NW 13 15 - - - - - - - - - -
22/10:30pm NW 14 16 - - - - - - - - - -
22/10:00pm NW 13 16 - - - - - - - - - -
22/09:30pm NW 10 12 - - - - - - - - - -
22/09:00pm NW 10 12 - - - - - - - - - -
22/08:30pm NW 9 11 - - - - - - - - - -
22/08:00pm NW 9 10 - - - - - - - - - -
22/07:30pm WNW 11 14 - - - - - - - - - -
22/07:00pm WNW 11 13 - - - - - - - - - -
22/06:30pm WNW 14 16 - - - - - - - - - -
22/06:00pm W 17 21 - - - - - - - - - -
22/05:30pm W 16 21 - - - - - - - - - -
22/05:00pm W 15 18 - - - - - - - - - -
22/04:30pm W 15 19 - - - - - - - - - -
22/04:00pm W 16 18 - - - - - - - - - -
22/03:30pm WNW 16 19 - - - - - - - - - -
22/03:00pm W 14 17 - - - - - - - - - -
22/02:30pm WNW 15 18 - - - - - - - - - -
22/02:00pm W 15 18 - - - - - - - - - -
22/01:30pm W 15 17 - - - - - - - - - -
22/01:00pm W 12 16 - - - - - - - - - -
22/12:30pm NW 13 15 - - - - - - - - - -
22/12:00pm WNW 13 14 - - - - - - - - - -
22/11:30am NW 13 17 - - - - - - - - - -
22/11:00am NW 11 12 - - - - - - - - - -
22/10:30am NW 9 10 - - - - - - - - - -
22/10:00am WNW 11 13 - - - - - - - - - -
22/09:30am WNW 11 13 - - - - - - - - - -
22/09:00am WNW 13 14 - - - - - - - - - -
22/08:30am WNW 14 16 - - - - - - - - - -
22/08:00am WNW 13 15 - - - - - - - - - -
22/07:30am WNW 13 15 - - - - - - - - - -
22/07:00am WNW 11 13 - - - - - - - - - -
22/06:30am WNW 11 14 - - - - - - - - - -
22/06:00am W 11 14 - - - - - - - - - -
22/05:30am WNW 12 14 - - - - - - - - - -
22/05:00am W 15 18 - - - - - - - - - -
22/04:30am WSW 15 17 - - - - - - - - - -
22/04:00am W 12 14 - - - - - - - - - -
22/03:30am W 14 17 - - - - - - - - - -
22/03:00am W 14 16 - - - - - - - - - -
22/02:30am W 16 17 - - - - - - - - - -
22/02:00am WNW 16 19 - - - - - - - - - -
22/01:30am WNW 16 19 - - - - - - - - - -
22/01:00am WNW 17 20 - - - - - - - - - -
22/12:30am WNW 18 20 - - - - - - - - - -
22/12:00am W 19 21 - - - - - - - - - -
 
Date/Time
EST
Wind Sea
Height
m
Swell Vis
km
Cloud Weather Temp
°C
Press
MSL
hPa
Rain since
9am
mm
Dir  Spd
kts
Gust
kts
Height
m
Period
s
Dir
21/11:30pm W 19 22 - - - - - - - - - -
21/11:00pm WNW 21 24 - - - - - - - - - -
21/10:30pm WNW 17 20 - - - - - - - - - -
21/10:00pm WNW 17 19 - - - - - - - - - -
21/09:30pm WNW 17 20 - - - - - - - - - -
21/09:00pm WNW 17 20 - - - - - - - - - -
21/08:30pm WNW 14 16 - - - - - - - - - -
21/08:00pm WNW 16 18 - - - - - - - - - -
21/07:30pm WNW 16 18 - - - - - - - - - -
21/07:00pm WNW 16 18 - - - - - - - - - -
21/06:30pm W 17 20 - - - - - - - - - -
21/06:00pm W 15 17 - - - - - - - - - -
21/05:30pm WSW 15 18 - - - - - - - - - -
21/05:00pm WSW 13 15 - - - - - - - - - -
21/04:30pm WSW 17 20 - - - - - - - - - -
21/04:00pm SW 17 22 - - - - - - - - - -
21/03:30pm SW 20 25 - - - - - - - - - -
21/03:00pm SW 21 28 - - - - - - - - - -
21/02:30pm SW 20 24 - - - - - - - - - -
21/02:00pm SW 22 27 - - - - - - - - - -
21/01:30pm SW 23 28 - - - - - - - - - -
21/01:00pm SW 23 28 - - - - - - - - - -
21/12:30pm SW 22 27 - - - - - - - - - -
21/12:00pm SW 21 25 - - - - - - - - - -
21/11:30am SW 24 29 - - - - - - - - - -
21/11:00am SSW 23 27 - - - - - - - - - -
21/10:30am SSW 21 26 - - - - - - - - - -
21/10:00am SW 21 26 - - - - - - - - - -
21/09:30am SW 24 30 - - - - - - - - - -
21/09:00am SSW 24 28 - - - - - - - - - -
21/08:33am SSW 30 39 - - - - - - - - - -
21/08:30am SSW 33 39 - - - - - - - - - -
21/08:26am SSW 28 39 - - - - - - - - - -
21/08:21am SSW 23 36 - - - - - - - - - -
21/08:00am SSW 25 31 - - - - - - - - - -
21/07:30am SSW 21 26 - - - - - - - - - -
21/07:00am SSW 24 30 - - - - - - - - - -
21/06:30am SW 23 29 - - - - - - - - - -
21/06:05am SSW 23 33 - - - - - - - - - -
21/06:00am SW 22 30 - - - - - - - - - -
21/05:30am SSW 23 30 - - - - - - - - - -
21/05:00am SW 27 39 - - - - - - - - - -
21/04:30am SSW 25 30 - - - - - - - - - -
21/04:00am SSW 30 35 - - - - - - - - - -
21/03:30am SSW 27 31 - - - - - - - - - -
21/03:00am SW 25 32 - - - - - - - - - -
21/02:30am SSW 25 31 - - - - - - - - - -
21/02:11am SW 26 39 - - - - - - - - - -
21/02:00am SSW 26 31 - - - - - - - - - -
21/01:30am SSW 26 31 - - - - - - - - - -
21/01:00am SW 24 29 - - - - - - - - - -
21/12:40am SW 27 39 - - - - - - - - - -
21/12:30am SW 26 29 - - - - - - - - - -
21/12:00am SW 21 26 - - - - - - - - - -
 
Date/Time
EST
Wind Sea
Height
m
Swell Vis
km
Cloud Weather Temp
°C
Press
MSL
hPa
Rain since
9am
mm
Dir  Spd
kts
Gust
kts
Height
m
Period
s
Dir
20/11:42pm SSW 31 40 - - - - - - - - - -
20/11:30pm SSW 33 41 - - - - - - - - - -
20/11:27pm SSW 30 41 - - - - - - - - - -
20/11:23pm SW 26 37 - - - - - - - - - -
20/11:04pm WSW 22 27 - - - - - - - - - -
20/11:00pm WSW 23 31 - - - - - - - - - -
20/10:30pm WSW 24 31 - - - - - - - - - -
20/10:00pm W 25 29 - - - - - - - - - -
20/09:30pm WSW 23 28 - - - - - - - - - -
20/09:00pm WSW 25 31 - - - - - - - - - -
20/08:30pm WSW 27 32 - - - - - - - - - -
20/08:14pm WSW 18 29 - - - - - - - - - -
20/08:00pm WSW 22 26 - - - - - - - - - -
20/07:30pm WSW 27 31 - - - - - - - - - -
20/07:00pm WSW 25 30 - - - - - - - - - -
20/06:30pm WSW 21 29 - - - - - - - - - -
20/06:18pm WSW 23 38 - - - - - - - - - -
20/06:00pm WSW 20 24 - - - - - - - - - -
20/05:30pm WSW 19 25 - - - - - - - - - -
20/05:00pm W 21 25 - - - - - - - - - -
20/04:30pm W 20 23 - - - - - - - - - -
20/04:00pm W 25 31 - - - - - - - - - -
20/03:30pm W 19 23 - - - - - - - - - -
20/03:00pm WSW 24 33 - - - - - - - - - -
20/02:47pm W 25 35 - - - - - - - - - -
20/02:30pm W 26 29 - - - - - - - - - -
20/02:00pm W 26 29 - - - - - - - - - -
20/01:39pm W 26 33 - - - - - - - - - -
20/01:30pm W 21 27 - - - - - - - - - -
20/01:19pm WSW 30 41 - - - - - - - - - -
20/01:06pm W 32 43 - - - - - - - - - -
20/01:00pm W 29 34 - - - - - - - - - -
20/12:30pm W 26 31 - - - - - - - - - -
20/12:00pm W 31 36 - - - - - - - - - -
20/11:30am W 31 37 - - - - - - - - - -
20/11:07am W 24 34 - - - - - - - - - -
20/11:00am W 21 26 - - - - - - - - - -
20/10:39am W 29 39 - - - - - - - - - -

Other formats

Comma delimited format used in spreadsheet applications
http://www.bom.gov.au/fwo/IDV60701/IDV60701.94853.axf

JavaScript Object Notation format (JSON) in row-major order
http://www.bom.gov.au/fwo/IDV60701/IDV60701.94853.json

Data quality

Most of these data are generated automatically and are frequently updated. Quality checks on data are not normally performed. It is possible for incorrect values to appear. Refer to information at About Latest Weather Observations and please check the disclaimer before using these data.